sensor_id;sensor_type;location;lat;lon;timestamp;P1;durP1;ratioP1;P2;durP2;ratioP2
23232;SDS011;11785;49.500;8.288;2023-04-29T00:02:18;4.72;;;4.00;;
23232;SDS011;11785;49.500;8.288;2023-04-29T00:04:43;6.47;;;4.30;;
23232;SDS011;11785;49.500;8.288;2023-04-29T00:07:09;4.63;;;4.13;;
23232;SDS011;11785;49.500;8.288;2023-04-29T00:09:34;6.15;;;5.53;;
23232;SDS011;11785;49.500;8.288;2023-04-29T00:12:01;7.65;;;4.82;;
23232;SDS011;11785;49.500;8.288;2023-04-29T00:14:27;7.90;;;5.20;;
23232;SDS011;11785;49.500;8.288;2023-04-29T00:16:52;9.00;;;4.78;;
23232;SDS011;11785;49.500;8.288;2023-04-29T00:19:18;5.63;;;4.20;;
23232;SDS011;11785;49.500;8.288;2023-04-29T00:21:44;6.57;;;4.72;;
23232;SDS011;11785;49.500;8.288;2023-04-29T00:24:09;4.63;;;4.07;;
23232;SDS011;11785;49.500;8.288;2023-04-29T00:26:35;6.82;;;4.15;;
23232;SDS011;11785;49.500;8.288;2023-04-29T00:29:00;4.70;;;4.18;;
23232;SDS011;11785;49.500;8.288;2023-04-29T00:31:26;6.45;;;4.43;;
23232;SDS011;11785;49.500;8.288;2023-04-29T00:33:52;6.32;;;4.00;;
23232;SDS011;11785;49.500;8.288;2023-04-29T00:36:17;5.10;;;4.60;;
23232;SDS011;11785;49.500;8.288;2023-04-29T00:38:43;8.23;;;4.50;;
23232;SDS011;11785;49.500;8.288;2023-04-29T00:41:08;9.00;;;4.93;;
23232;SDS011;11785;49.500;8.288;2023-04-29T00:43:34;5.57;;;4.88;;
23232;SDS011;11785;49.500;8.288;2023-04-29T00:45:59;7.05;;;4.60;;
23232;SDS011;11785;49.500;8.288;2023-04-29T00:48:25;7.40;;;4.88;;
23232;SDS011;11785;49.500;8.288;2023-04-29T00:50:51;4.97;;;4.40;;
23232;SDS011;11785;49.500;8.288;2023-04-29T00:53:17;6.90;;;4.65;;
23232;SDS011;11785;49.500;8.288;2023-04-29T00:55:45;8.93;;;4.05;;
23232;SDS011;11785;49.500;8.288;2023-04-29T00:58:12;8.30;;;4.78;;
23232;SDS011;11785;49.500;8.288;2023-04-29T01:00:38;9.15;;;4.82;;
23232;SDS011;11785;49.500;8.288;2023-04-29T01:03:05;7.18;;;5.10;;
23232;SDS011;11785;49.500;8.288;2023-04-29T01:05:33;7.95;;;5.38;;
23232;SDS011;11785;49.500;8.288;2023-04-29T01:11:07;7.32;;;5.00;;
23232;SDS011;11785;49.500;8.288;2023-04-29T01:13:41;9.38;;;5.20;;
23232;SDS011;11785;49.500;8.288;2023-04-29T01:16:10;9.18;;;5.38;;
23232;SDS011;11785;49.500;8.288;2023-04-29T01:18:45;7.47;;;5.32;;
23232;SDS011;11785;49.500;8.288;2023-04-29T01:21:18;9.80;;;5.70;;
23232;SDS011;11785;49.500;8.288;2023-04-29T01:23:44;8.73;;;4.47;;
23232;SDS011;11785;49.500;8.288;2023-04-29T01:26:09;6.10;;;4.97;;
23232;SDS011;11785;49.500;8.288;2023-04-29T01:31:18;6.47;;;4.60;;
23232;SDS011;11785;49.500;8.288;2023-04-29T01:36:35;5.05;;;4.22;;
23232;SDS011;11785;49.500;8.288;2023-04-29T01:39:15;7.20;;;4.50;;
23232;SDS011;11785;49.500;8.288;2023-04-29T01:42:02;5.13;;;4.10;;
23232;SDS011;11785;49.500;8.288;2023-04-29T01:44:35;5.68;;;4.40;;
23232;SDS011;11785;49.500;8.288;2023-04-29T01:47:02;6.53;;;3.95;;
23232;SDS011;11785;49.500;8.288;2023-04-29T01:49:29;4.28;;;3.88;;
23232;SDS011;11785;49.500;8.288;2023-04-29T01:51:55;6.25;;;3.80;;
23232;SDS011;11785;49.500;8.288;2023-04-29T01:54:21;3.40;;;2.95;;
23232;SDS011;11785;49.500;8.288;2023-04-29T01:56:47;3.17;;;2.88;;
23232;SDS011;11785;49.500;8.288;2023-04-29T01:59:12;3.80;;;3.00;;
23232;SDS011;11785;49.500;8.288;2023-04-29T02:01:38;2.47;;;2.28;;
23232;SDS011;11785;49.500;8.288;2023-04-29T02:04:04;2.63;;;2.13;;
23232;SDS011;11785;49.500;8.288;2023-04-29T02:06:29;2.60;;;2.00;;
23232;SDS011;11785;49.500;8.288;2023-04-29T02:08:56;2.05;;;1.85;;
23232;SDS011;11785;49.500;8.288;2023-04-29T02:11:22;2.65;;;1.92;;
23232;SDS011;11785;49.500;8.288;2023-04-29T02:13:47;1.98;;;1.80;;
23232;SDS011;11785;49.500;8.288;2023-04-29T02:16:13;3.00;;;1.60;;
23232;SDS011;11785;49.500;8.288;2023-04-29T02:18:40;2.38;;;1.65;;
23232;SDS011;11785;49.500;8.288;2023-04-29T02:21:06;3.50;;;1.40;;
23232;SDS011;11785;49.500;8.288;2023-04-29T02:23:32;2.38;;;1.13;;
23232;SDS011;11785;49.500;8.288;2023-04-29T02:25:58;2.53;;;1.33;;
23232;SDS011;11785;49.500;8.288;2023-04-29T02:28:24;1.92;;;1.42;;
23232;SDS011;11785;49.500;8.288;2023-04-29T02:30:49;1.25;;;1.17;;
23232;SDS011;11785;49.500;8.288;2023-04-29T02:33:15;6.50;;;1.27;;
23232;SDS011;11785;49.500;8.288;2023-04-29T02:35:42;5.63;;;1.30;;
23232;SDS011;11785;49.500;8.288;2023-04-29T02:38:08;1.33;;;1.13;;
23232;SDS011;11785;49.500;8.288;2023-04-29T02:40:34;1.13;;;1.02;;
23232;SDS011;11785;49.500;8.288;2023-04-29T02:43:04;3.47;;;1.40;;
23232;SDS011;11785;49.500;8.288;2023-04-29T02:45:30;3.47;;;1.17;;
23232;SDS011;11785;49.500;8.288;2023-04-29T02:47:55;3.47;;;1.20;;
23232;SDS011;11785;49.500;8.288;2023-04-29T02:50:21;1.45;;;1.35;;
23232;SDS011;11785;49.500;8.288;2023-04-29T02:52:47;4.30;;;1.50;;
23232;SDS011;11785;49.500;8.288;2023-04-29T02:55:12;4.32;;;1.50;;
23232;SDS011;11785;49.500;8.288;2023-04-29T02:57:38;1.30;;;1.20;;
23232;SDS011;11785;49.500;8.288;2023-04-29T03:00:05;1.58;;;1.15;;
23232;SDS011;11785;49.500;8.288;2023-04-29T03:02:31;1.50;;;1.40;;
23232;SDS011;11785;49.500;8.288;2023-04-29T03:04:57;3.88;;;1.35;;
23232;SDS011;11785;49.500;8.288;2023-04-29T03:07:22;1.70;;;1.20;;
23232;SDS011;11785;49.500;8.288;2023-04-29T03:09:48;1.40;;;1.30;;
23232;SDS011;11785;49.500;8.288;2023-04-29T03:12:13;1.33;;;1.23;;
23232;SDS011;11785;49.500;8.288;2023-04-29T03:14:40;1.35;;;1.25;;
23232;SDS011;11785;49.500;8.288;2023-04-29T03:17:06;2.22;;;1.58;;
23232;SDS011;11785;49.500;8.288;2023-04-29T03:19:31;1.52;;;1.42;;
23232;SDS011;11785;49.500;8.288;2023-04-29T03:21:57;3.63;;;1.52;;
23232;SDS011;11785;49.500;8.288;2023-04-29T03:24:22;1.75;;;1.40;;
23232;SDS011;11785;49.500;8.288;2023-04-29T03:26:48;2.58;;;1.60;;
23232;SDS011;11785;49.500;8.288;2023-04-29T03:29:13;3.80;;;2.10;;
23232;SDS011;11785;49.500;8.288;2023-04-29T03:31:39;1.98;;;1.70;;
23232;SDS011;11785;49.500;8.288;2023-04-29T03:34:05;3.58;;;2.20;;
23232;SDS011;11785;49.500;8.288;2023-04-29T03:36:31;4.32;;;1.77;;
23232;SDS011;11785;49.500;8.288;2023-04-29T03:38:56;3.13;;;1.60;;
23232;SDS011;11785;49.500;8.288;2023-04-29T03:41:22;2.65;;;1.50;;
23232;SDS011;11785;49.500;8.288;2023-04-29T03:43:48;2.25;;;1.70;;
23232;SDS011;11785;49.500;8.288;2023-04-29T03:46:14;2.80;;;1.80;;
23232;SDS011;11785;49.500;8.288;2023-04-29T03:48:39;1.90;;;1.80;;
23232;SDS011;11785;49.500;8.288;2023-04-29T03:51:05;2.40;;;1.77;;
23232;SDS011;11785;49.500;8.288;2023-04-29T03:53:30;1.65;;;1.55;;
23232;SDS011;11785;49.500;8.288;2023-04-29T03:55:56;3.53;;;1.75;;
23232;SDS011;11785;49.500;8.288;2023-04-29T03:58:23;1.83;;;1.73;;
23232;SDS011;11785;49.500;8.288;2023-04-29T04:00:48;1.95;;;1.83;;
23232;SDS011;11785;49.500;8.288;2023-04-29T04:03:14;3.22;;;2.00;;
23232;SDS011;11785;49.500;8.288;2023-04-29T04:05:39;2.72;;;2.08;;
23232;SDS011;11785;49.500;8.288;2023-04-29T04:08:05;2.33;;;1.88;;
23232;SDS011;11785;49.500;8.288;2023-04-29T04:10:30;2.13;;;1.70;;
23232;SDS011;11785;49.500;8.288;2023-04-29T04:12:56;3.17;;;1.95;;
23232;SDS011;11785;49.500;8.288;2023-04-29T04:15:22;1.77;;;1.65;;
23232;SDS011;11785;49.500;8.288;2023-04-29T04:17:47;2.88;;;1.70;;
23232;SDS011;11785;49.500;8.288;2023-04-29T04:20:13;2.97;;;1.50;;
23232;SDS011;11785;49.500;8.288;2023-04-29T04:22:39;2.22;;;2.00;;
23232;SDS011;11785;49.500;8.288;2023-04-29T04:25:05;1.60;;;1.50;;
23232;SDS011;11785;49.500;8.288;2023-04-29T04:27:32;1.80;;;1.70;;
23232;SDS011;11785;49.500;8.288;2023-04-29T04:29:57;3.13;;;1.77;;
23232;SDS011;11785;49.500;8.288;2023-04-29T04:32:23;4.72;;;1.60;;
23232;SDS011;11785;49.500;8.288;2023-04-29T04:34:49;3.00;;;1.52;;
23232;SDS011;11785;49.500;8.288;2023-04-29T04:37:15;2.53;;;1.55;;
23232;SDS011;11785;49.500;8.288;2023-04-29T04:39:41;1.95;;;1.42;;
23232;SDS011;11785;49.500;8.288;2023-04-29T04:42:07;1.60;;;1.50;;
23232;SDS011;11785;49.500;8.288;2023-04-29T04:44:32;1.50;;;1.40;;
23232;SDS011;11785;49.500;8.288;2023-04-29T04:46:58;2.88;;;2.00;;
23232;SDS011;11785;49.500;8.288;2023-04-29T04:49:26;2.15;;;1.85;;
23232;SDS011;11785;49.500;8.288;2023-04-29T04:51:52;2.42;;;2.22;;
23232;SDS011;11785;49.500;8.288;2023-04-29T04:54:18;3.15;;;1.33;;
23232;SDS011;11785;49.500;8.288;2023-04-29T04:56:44;1.85;;;1.40;;
23232;SDS011;11785;49.500;8.288;2023-04-29T04:59:09;3.45;;;1.90;;
23232;SDS011;11785;49.500;8.288;2023-04-29T05:01:35;2.47;;;2.28;;
23232;SDS011;11785;49.500;8.288;2023-04-29T05:04:00;2.28;;;2.08;;
23232;SDS011;11785;49.500;8.288;2023-04-29T05:06:27;2.28;;;1.70;;
23232;SDS011;11785;49.500;8.288;2023-04-29T05:08:52;1.88;;;1.50;;
23232;SDS011;11785;49.500;8.288;2023-04-29T05:11:19;1.35;;;1.25;;
23232;SDS011;11785;49.500;8.288;2023-04-29T05:13:46;2.08;;;1.30;;
23232;SDS011;11785;49.500;8.288;2023-04-29T05:16:12;3.00;;;1.40;;
23232;SDS011;11785;49.500;8.288;2023-04-29T05:18:37;2.63;;;1.40;;
23232;SDS011;11785;49.500;8.288;2023-04-29T05:21:03;1.80;;;1.70;;
23232;SDS011;11785;49.500;8.288;2023-04-29T05:23:28;1.73;;;1.63;;
23232;SDS011;11785;49.500;8.288;2023-04-29T05:25:54;1.88;;;1.58;;
23232;SDS011;11785;49.500;8.288;2023-04-29T05:28:19;2.20;;;1.70;;
23232;SDS011;11785;49.500;8.288;2023-04-29T05:30:45;1.52;;;1.42;;
23232;SDS011;11785;49.500;8.288;2023-04-29T05:33:11;2.55;;;1.45;;
23232;SDS011;11785;49.500;8.288;2023-04-29T05:35:37;2.47;;;1.55;;
23232;SDS011;11785;49.500;8.288;2023-04-29T05:38:03;2.03;;;1.65;;
23232;SDS011;11785;49.500;8.288;2023-04-29T05:40:28;3.13;;;1.90;;
23232;SDS011;11785;49.500;8.288;2023-04-29T05:42:54;2.50;;;1.77;;
23232;SDS011;11785;49.500;8.288;2023-04-29T05:45:19;3.00;;;2.20;;
23232;SDS011;11785;49.500;8.288;2023-04-29T05:47:45;4.10;;;2.03;;
23232;SDS011;11785;49.500;8.288;2023-04-29T05:50:11;3.10;;;1.80;;
23232;SDS011;11785;49.500;8.288;2023-04-29T05:52:37;3.67;;;2.05;;
23232;SDS011;11785;49.500;8.288;2023-04-29T05:55:03;2.10;;;1.90;;
23232;SDS011;11785;49.500;8.288;2023-04-29T05:57:28;2.75;;;2.15;;
23232;SDS011;11785;49.500;8.288;2023-04-29T05:59:54;2.65;;;2.10;;
23232;SDS011;11785;49.500;8.288;2023-04-29T06:02:20;3.17;;;2.35;;
23232;SDS011;11785;49.500;8.288;2023-04-29T06:04:45;3.15;;;2.17;;
23232;SDS011;11785;49.500;8.288;2023-04-29T06:07:14;3.33;;;2.40;;
23232;SDS011;11785;49.500;8.288;2023-04-29T06:09:39;3.42;;;2.72;;
23232;SDS011;11785;49.500;8.288;2023-04-29T06:12:06;3.25;;;2.60;;
23232;SDS011;11785;49.500;8.288;2023-04-29T06:14:32;2.97;;;2.65;;
23232;SDS011;11785;49.500;8.288;2023-04-29T06:16:58;6.30;;;2.72;;
23232;SDS011;11785;49.500;8.288;2023-04-29T06:19:23;6.10;;;3.60;;
23232;SDS011;11785;49.500;8.288;2023-04-29T06:21:49;8.55;;;3.45;;
23232;SDS011;11785;49.500;8.288;2023-04-29T06:24:15;4.63;;;3.60;;
23232;SDS011;11785;49.500;8.288;2023-04-29T06:26:40;4.88;;;3.60;;
23232;SDS011;11785;49.500;8.288;2023-04-29T06:29:06;5.55;;;4.18;;
23232;SDS011;11785;49.500;8.288;2023-04-29T06:31:31;8.05;;;4.38;;
23232;SDS011;11785;49.500;8.288;2023-04-29T06:33:57;8.93;;;4.35;;
23232;SDS011;11785;49.500;8.288;2023-04-29T06:36:22;5.57;;;4.13;;
23232;SDS011;11785;49.500;8.288;2023-04-29T06:38:48;5.95;;;4.50;;
23232;SDS011;11785;49.500;8.288;2023-04-29T06:41:14;6.80;;;4.88;;
23232;SDS011;11785;49.500;8.288;2023-04-29T06:43:39;6.88;;;5.45;;
23232;SDS011;11785;49.500;8.288;2023-04-29T06:46:07;9.82;;;5.22;;
23232;SDS011;11785;49.500;8.288;2023-04-29T06:48:32;16.25;;;5.75;;
23232;SDS011;11785;49.500;8.288;2023-04-29T06:50:58;8.70;;;5.40;;
23232;SDS011;11785;49.500;8.288;2023-04-29T06:53:24;10.75;;;4.45;;
23232;SDS011;11785;49.500;8.288;2023-04-29T06:55:50;10.30;;;4.55;;
23232;SDS011;11785;49.500;8.288;2023-04-29T06:58:16;8.52;;;4.57;;
23232;SDS011;11785;49.500;8.288;2023-04-29T07:00:46;7.13;;;4.07;;
23232;SDS011;11785;49.500;8.288;2023-04-29T07:03:14;6.68;;;4.68;;
23232;SDS011;11785;49.500;8.288;2023-04-29T07:05:40;8.40;;;4.93;;
23232;SDS011;11785;49.500;8.288;2023-04-29T07:08:09;9.43;;;5.70;;
23232;SDS011;11785;49.500;8.288;2023-04-29T07:10:35;10.15;;;5.75;;
23232;SDS011;11785;49.500;8.288;2023-04-29T07:13:00;12.80;;;7.60;;
23232;SDS011;11785;49.500;8.288;2023-04-29T07:15:26;17.17;;;8.85;;
23232;SDS011;11785;49.500;8.288;2023-04-29T07:17:52;15.50;;;10.25;;
23232;SDS011;11785;49.500;8.288;2023-04-29T07:20:18;12.55;;;9.60;;
23232;SDS011;11785;49.500;8.288;2023-04-29T07:22:44;11.80;;;8.95;;
23232;SDS011;11785;49.500;8.288;2023-04-29T07:25:09;12.68;;;8.95;;
23232;SDS011;11785;49.500;8.288;2023-04-29T07:27:35;11.88;;;8.48;;
23232;SDS011;11785;49.500;8.288;2023-04-29T07:30:02;11.85;;;8.90;;
23232;SDS011;11785;49.500;8.288;2023-04-29T07:32:28;12.63;;;8.27;;
23232;SDS011;11785;49.500;8.288;2023-04-29T07:34:57;12.73;;;8.57;;
23232;SDS011;11785;49.500;8.288;2023-04-29T07:37:23;14.15;;;8.60;;
23232;SDS011;11785;49.500;8.288;2023-04-29T07:39:49;12.32;;;8.82;;
23232;SDS011;11785;49.500;8.288;2023-04-29T07:42:15;13.18;;;8.57;;
23232;SDS011;11785;49.500;8.288;2023-04-29T07:44:41;12.35;;;8.38;;
23232;SDS011;11785;49.500;8.288;2023-04-29T07:47:09;10.50;;;7.18;;
23232;SDS011;11785;49.500;8.288;2023-04-29T07:49:35;12.00;;;7.88;;
23232;SDS011;11785;49.500;8.288;2023-04-29T07:52:00;13.70;;;7.85;;
23232;SDS011;11785;49.500;8.288;2023-04-29T07:54:26;11.95;;;8.23;;
23232;SDS011;11785;49.500;8.288;2023-04-29T07:56:52;12.40;;;8.32;;
23232;SDS011;11785;49.500;8.288;2023-04-29T07:59:17;17.80;;;8.55;;
23232;SDS011;11785;49.500;8.288;2023-04-29T08:01:43;17.90;;;7.20;;
23232;SDS011;11785;49.500;8.288;2023-04-29T08:04:08;12.38;;;7.60;;
23232;SDS011;11785;49.500;8.288;2023-04-29T08:06:34;15.50;;;7.90;;
23232;SDS011;11785;49.500;8.288;2023-04-29T08:08:59;15.80;;;8.55;;
23232;SDS011;11785;49.500;8.288;2023-04-29T08:11:25;11.65;;;7.53;;
23232;SDS011;11785;49.500;8.288;2023-04-29T08:13:51;11.52;;;7.50;;
23232;SDS011;11785;49.500;8.288;2023-04-29T08:16:17;11.43;;;7.38;;
23232;SDS011;11785;49.500;8.288;2023-04-29T08:18:43;11.73;;;7.25;;
23232;SDS011;11785;49.500;8.288;2023-04-29T08:21:08;15.52;;;7.75;;
23232;SDS011;11785;49.500;8.288;2023-04-29T08:23:38;10.45;;;6.90;;
23232;SDS011;11785;49.500;8.288;2023-04-29T08:26:04;11.50;;;7.28;;
23232;SDS011;11785;49.500;8.288;2023-04-29T08:28:29;9.13;;;7.00;;
23232;SDS011;11785;49.500;8.288;2023-04-29T08:30:55;8.32;;;5.90;;
23232;SDS011;11785;49.500;8.288;2023-04-29T08:33:21;9.57;;;6.07;;
23232;SDS011;11785;49.500;8.288;2023-04-29T08:35:46;10.55;;;6.18;;
23232;SDS011;11785;49.500;8.288;2023-04-29T08:38:12;6.18;;;5.05;;
23232;SDS011;11785;49.500;8.288;2023-04-29T08:40:44;8.20;;;5.07;;
23232;SDS011;11785;49.500;8.288;2023-04-29T08:43:12;10.38;;;5.03;;
23232;SDS011;11785;49.500;8.288;2023-04-29T08:45:39;7.57;;;5.03;;
23232;SDS011;11785;49.500;8.288;2023-04-29T08:48:06;8.13;;;5.13;;
23232;SDS011;11785;49.500;8.288;2023-04-29T08:50:39;11.05;;;5.65;;
23232;SDS011;11785;49.500;8.288;2023-04-29T08:55:34;7.18;;;5.10;;
23232;SDS011;11785;49.500;8.288;2023-04-29T08:58:00;7.00;;;5.25;;
23232;SDS011;11785;49.500;8.288;2023-04-29T09:00:26;6.25;;;4.90;;
23232;SDS011;11785;49.500;8.288;2023-04-29T09:02:54;12.48;;;7.00;;
23232;SDS011;11785;49.500;8.288;2023-04-29T09:05:21;8.07;;;5.60;;
23232;SDS011;11785;49.500;8.288;2023-04-29T09:07:49;7.22;;;5.03;;
23232;SDS011;11785;49.500;8.288;2023-04-29T09:10:16;9.15;;;5.15;;
23232;SDS011;11785;49.500;8.288;2023-04-29T09:12:42;7.47;;;5.30;;
23232;SDS011;11785;49.500;8.288;2023-04-29T09:15:08;6.15;;;5.10;;
23232;SDS011;11785;49.500;8.288;2023-04-29T09:17:47;9.20;;;5.32;;
23232;SDS011;11785;49.500;8.288;2023-04-29T09:22:54;7.78;;;5.20;;
23232;SDS011;11785;49.500;8.288;2023-04-29T09:25:25;9.63;;;5.43;;
23232;SDS011;11785;49.500;8.288;2023-04-29T09:27:51;8.35;;;5.75;;
23232;SDS011;11785;49.500;8.288;2023-04-29T09:30:17;8.63;;;5.45;;
23232;SDS011;11785;49.500;8.288;2023-04-29T09:32:43;9.52;;;6.15;;
23232;SDS011;11785;49.500;8.288;2023-04-29T09:35:25;7.78;;;5.32;;
23232;SDS011;11785;49.500;8.288;2023-04-29T09:37:52;8.93;;;5.63;;
23232;SDS011;11785;49.500;8.288;2023-04-29T09:40:40;8.05;;;5.50;;
23232;SDS011;11785;49.500;8.288;2023-04-29T09:43:10;9.30;;;5.85;;
23232;SDS011;11785;49.500;8.288;2023-04-29T09:45:39;8.85;;;5.60;;
23232;SDS011;11785;49.500;8.288;2023-04-29T09:48:07;9.18;;;6.10;;
23232;SDS011;11785;49.500;8.288;2023-04-29T09:50:34;8.80;;;5.88;;
23232;SDS011;11785;49.500;8.288;2023-04-29T09:53:03;7.70;;;5.47;;
23232;SDS011;11785;49.500;8.288;2023-04-29T09:55:32;6.85;;;5.20;;
23232;SDS011;11785;49.500;8.288;2023-04-29T09:58:36;7.20;;;5.32;;
23232;SDS011;11785;49.500;8.288;2023-04-29T10:01:03;8.25;;;5.40;;
23232;SDS011;11785;49.500;8.288;2023-04-29T10:03:30;5.93;;;4.80;;
23232;SDS011;11785;49.500;8.288;2023-04-29T10:06:00;8.82;;;5.10;;
23232;SDS011;11785;49.500;8.288;2023-04-29T10:08:30;5.82;;;4.85;;
23232;SDS011;11785;49.500;8.288;2023-04-29T10:10:58;6.78;;;5.05;;
23232;SDS011;11785;49.500;8.288;2023-04-29T10:13:28;7.30;;;5.07;;
23232;SDS011;11785;49.500;8.288;2023-04-29T10:15:59;8.75;;;5.15;;
23232;SDS011;11785;49.500;8.288;2023-04-29T10:18:36;7.30;;;4.82;;
23232;SDS011;11785;49.500;8.288;2023-04-29T10:21:06;5.72;;;4.00;;
23232;SDS011;11785;49.500;8.288;2023-04-29T10:23:33;6.28;;;3.85;;
23232;SDS011;11785;49.500;8.288;2023-04-29T10:26:01;3.95;;;3.40;;
23232;SDS011;11785;49.500;8.288;2023-04-29T10:28:29;6.95;;;3.83;;
23232;SDS011;11785;49.500;8.288;2023-04-29T10:30:56;7.55;;;4.32;;
23232;SDS011;11785;49.500;8.288;2023-04-29T10:33:30;5.85;;;4.45;;
23232;SDS011;11785;49.500;8.288;2023-04-29T10:35:58;5.80;;;4.13;;
23232;SDS011;11785;49.500;8.288;2023-04-29T10:40:53;4.80;;;3.85;;
23232;SDS011;11785;49.500;8.288;2023-04-29T10:43:25;5.35;;;4.07;;
23232;SDS011;11785;49.500;8.288;2023-04-29T10:48:44;5.97;;;4.18;;
23232;SDS011;11785;49.500;8.288;2023-04-29T10:51:26;4.88;;;3.85;;
23232;SDS011;11785;49.500;8.288;2023-04-29T10:56:49;5.32;;;3.75;;
23232;SDS011;11785;49.500;8.288;2023-04-29T10:59:19;6.20;;;4.20;;
23232;SDS011;11785;49.500;8.288;2023-04-29T11:04:18;6.30;;;4.90;;
23232;SDS011;11785;49.500;8.288;2023-04-29T11:09:23;3.85;;;3.28;;
23232;SDS011;11785;49.500;8.288;2023-04-29T11:12:07;6.80;;;3.75;;
23232;SDS011;11785;49.500;8.288;2023-04-29T11:17:15;5.80;;;3.55;;
23232;SDS011;11785;49.500;8.288;2023-04-29T11:19:46;5.90;;;3.60;;
23232;SDS011;11785;49.500;8.288;2023-04-29T11:24:52;9.82;;;4.40;;
23232;SDS011;11785;49.500;8.288;2023-04-29T11:27:20;6.55;;;4.60;;
23232;SDS011;11785;49.500;8.288;2023-04-29T11:29:49;5.35;;;4.13;;
23232;SDS011;11785;49.500;8.288;2023-04-29T11:32:22;5.60;;;4.32;;
23232;SDS011;11785;49.500;8.288;2023-04-29T11:34:52;6.07;;;4.47;;
23232;SDS011;11785;49.500;8.288;2023-04-29T11:37:18;8.00;;;4.60;;
23232;SDS011;11785;49.500;8.288;2023-04-29T11:39:48;6.85;;;4.75;;
23232;SDS011;11785;49.500;8.288;2023-04-29T11:42:18;11.55;;;4.97;;
23232;SDS011;11785;49.500;8.288;2023-04-29T11:44:45;6.75;;;4.57;;
23232;SDS011;11785;49.500;8.288;2023-04-29T11:47:10;5.15;;;4.28;;
23232;SDS011;11785;49.500;8.288;2023-04-29T11:49:36;4.97;;;3.92;;
23232;SDS011;11785;49.500;8.288;2023-04-29T11:52:02;4.10;;;3.70;;
23232;SDS011;11785;49.500;8.288;2023-04-29T11:54:28;5.57;;;3.92;;
23232;SDS011;11785;49.500;8.288;2023-04-29T11:56:55;5.40;;;3.50;;
23232;SDS011;11785;49.500;8.288;2023-04-29T11:59:22;3.88;;;3.25;;
23232;SDS011;11785;49.500;8.288;2023-04-29T12:01:51;15.35;;;7.70;;
23232;SDS011;11785;49.500;8.288;2023-04-29T12:04:17;4.75;;;3.85;;
23232;SDS011;11785;49.500;8.288;2023-04-29T12:06:43;4.55;;;3.28;;
23232;SDS011;11785;49.500;8.288;2023-04-29T12:09:09;5.35;;;3.10;;
23232;SDS011;11785;49.500;8.288;2023-04-29T12:11:35;5.38;;;3.50;;
23232;SDS011;11785;49.500;8.288;2023-04-29T12:14:02;3.47;;;3.13;;
23232;SDS011;11785;49.500;8.288;2023-04-29T12:16:30;4.78;;;3.55;;
23232;SDS011;11785;49.500;8.288;2023-04-29T12:18:56;4.43;;;3.13;;
23232;SDS011;11785;49.500;8.288;2023-04-29T12:21:23;2.72;;;2.38;;
23232;SDS011;11785;49.500;8.288;2023-04-29T12:23:49;2.55;;;2.22;;
23232;SDS011;11785;49.500;8.288;2023-04-29T12:26:15;2.70;;;2.50;;
23232;SDS011;11785;49.500;8.288;2023-04-29T12:28:43;4.57;;;3.08;;
23232;SDS011;11785;49.500;8.288;2023-04-29T12:31:08;3.40;;;2.88;;
23232;SDS011;11785;49.500;8.288;2023-04-29T12:33:37;4.97;;;3.13;;
23232;SDS011;11785;49.500;8.288;2023-04-29T12:36:14;5.97;;;3.15;;
23232;SDS011;11785;49.500;8.288;2023-04-29T12:38:42;4.95;;;3.60;;
23232;SDS011;11785;49.500;8.288;2023-04-29T12:41:07;4.00;;;3.60;;
23232;SDS011;11785;49.500;8.288;2023-04-29T12:43:33;4.45;;;3.95;;
23232;SDS011;11785;49.500;8.288;2023-04-29T12:48:31;4.07;;;3.60;;
23232;SDS011;11785;49.500;8.288;2023-04-29T12:50:58;6.18;;;4.15;;
23232;SDS011;11785;49.500;8.288;2023-04-29T12:53:25;6.50;;;4.20;;
23232;SDS011;11785;49.500;8.288;2023-04-29T12:55:51;6.25;;;4.60;;
23232;SDS011;11785;49.500;8.288;2023-04-29T12:58:18;7.50;;;5.53;;
23232;SDS011;11785;49.500;8.288;2023-04-29T13:00:43;6.55;;;5.10;;
23232;SDS011;11785;49.500;8.288;2023-04-29T13:03:09;6.50;;;5.13;;
23232;SDS011;11785;49.500;8.288;2023-04-29T13:05:35;6.55;;;4.25;;
23232;SDS011;11785;49.500;8.288;2023-04-29T13:08:00;6.25;;;4.47;;
23232;SDS011;11785;49.500;8.288;2023-04-29T13:10:27;7.72;;;4.05;;
23232;SDS011;11785;49.500;8.288;2023-04-29T13:12:53;7.10;;;4.25;;
23232;SDS011;11785;49.500;8.288;2023-04-29T13:15:18;5.97;;;4.28;;
23232;SDS011;11785;49.500;8.288;2023-04-29T13:17:45;4.70;;;3.65;;
23232;SDS011;11785;49.500;8.288;2023-04-29T13:20:12;4.22;;;3.53;;
23232;SDS011;11785;49.500;8.288;2023-04-29T13:22:39;6.53;;;4.18;;
23232;SDS011;11785;49.500;8.288;2023-04-29T13:25:05;4.95;;;3.95;;
23232;SDS011;11785;49.500;8.288;2023-04-29T13:27:31;4.93;;;3.47;;
23232;SDS011;11785;49.500;8.288;2023-04-29T13:29:57;5.80;;;3.85;;
23232;SDS011;11785;49.500;8.288;2023-04-29T13:32:22;7.90;;;4.18;;
23232;SDS011;11785;49.500;8.288;2023-04-29T13:34:51;7.50;;;4.05;;
23232;SDS011;11785;49.500;8.288;2023-04-29T13:37:17;3.92;;;3.33;;
23232;SDS011;11785;49.500;8.288;2023-04-29T13:39:44;5.10;;;3.80;;
23232;SDS011;11785;49.500;8.288;2023-04-29T13:42:09;4.22;;;3.53;;
23232;SDS011;11785;49.500;8.288;2023-04-29T13:44:35;4.40;;;3.78;;
23232;SDS011;11785;49.500;8.288;2023-04-29T13:47:01;4.72;;;3.70;;
23232;SDS011;11785;49.500;8.288;2023-04-29T13:49:28;4.20;;;3.63;;
23232;SDS011;11785;49.500;8.288;2023-04-29T13:51:53;4.65;;;3.40;;
23232;SDS011;11785;49.500;8.288;2023-04-29T13:54:19;5.70;;;3.60;;
23232;SDS011;11785;49.500;8.288;2023-04-29T13:56:45;4.22;;;3.42;;
23232;SDS011;11785;49.500;8.288;2023-04-29T13:59:11;3.63;;;3.05;;
23232;SDS011;11785;49.500;8.288;2023-04-29T14:01:37;3.55;;;2.95;;
23232;SDS011;11785;49.500;8.288;2023-04-29T14:04:03;3.40;;;2.97;;
23232;SDS011;11785;49.500;8.288;2023-04-29T14:06:29;3.10;;;2.67;;
23232;SDS011;11785;49.500;8.288;2023-04-29T14:08:56;3.60;;;2.88;;
23232;SDS011;11785;49.500;8.288;2023-04-29T14:11:22;4.10;;;3.38;;
23232;SDS011;11785;49.500;8.288;2023-04-29T14:13:48;6.32;;;3.45;;
23232;SDS011;11785;49.500;8.288;2023-04-29T14:16:13;3.83;;;3.17;;
23232;SDS011;11785;49.500;8.288;2023-04-29T14:18:39;5.07;;;3.08;;
23232;SDS011;11785;49.500;8.288;2023-04-29T14:21:05;5.45;;;2.95;;
23232;SDS011;11785;49.500;8.288;2023-04-29T14:23:30;3.53;;;3.17;;
23232;SDS011;11785;49.500;8.288;2023-04-29T14:25:56;3.15;;;2.85;;
23232;SDS011;11785;49.500;8.288;2023-04-29T14:28:22;2.75;;;2.50;;
23232;SDS011;11785;49.500;8.288;2023-04-29T14:30:47;3.63;;;2.85;;
23232;SDS011;11785;49.500;8.288;2023-04-29T14:33:13;3.10;;;2.30;;
23232;SDS011;11785;49.500;8.288;2023-04-29T14:35:38;3.25;;;2.50;;
23232;SDS011;11785;49.500;8.288;2023-04-29T14:38:05;2.90;;;2.50;;
23232;SDS011;11785;49.500;8.288;2023-04-29T14:40:30;5.43;;;3.20;;
23232;SDS011;11785;49.500;8.288;2023-04-29T14:42:56;3.10;;;2.80;;
23232;SDS011;11785;49.500;8.288;2023-04-29T14:45:21;2.60;;;2.40;;
23232;SDS011;11785;49.500;8.288;2023-04-29T14:47:47;2.53;;;2.33;;
23232;SDS011;11785;49.500;8.288;2023-04-29T14:50:12;4.07;;;2.88;;
23232;SDS011;11785;49.500;8.288;2023-04-29T14:52:38;2.70;;;2.33;;
23232;SDS011;11785;49.500;8.288;2023-04-29T14:55:03;2.65;;;2.20;;
23232;SDS011;11785;49.500;8.288;2023-04-29T14:57:29;4.15;;;3.25;;
23232;SDS011;11785;49.500;8.288;2023-04-29T14:59:55;3.13;;;2.55;;
23232;SDS011;11785;49.500;8.288;2023-04-29T15:02:21;3.50;;;3.10;;
23232;SDS011;11785;49.500;8.288;2023-04-29T15:04:46;3.58;;;3.13;;
23232;SDS011;11785;49.500;8.288;2023-04-29T15:07:12;3.50;;;3.08;;
23232;SDS011;11785;49.500;8.288;2023-04-29T15:09:39;4.90;;;2.97;;
23232;SDS011;11785;49.500;8.288;2023-04-29T15:12:06;6.60;;;3.75;;
23232;SDS011;11785;49.500;8.288;2023-04-29T15:14:32;4.50;;;3.45;;
23232;SDS011;11785;49.500;8.288;2023-04-29T15:16:57;6.38;;;3.97;;
23232;SDS011;11785;49.500;8.288;2023-04-29T15:19:23;5.00;;;3.47;;